createdAt,value
2019-05-09T00:01:34.742Z,13.10
2019-05-09T00:04:19.123Z,13.10
2019-05-09T00:07:04.526Z,13.10
2019-05-09T00:09:49.286Z,13.20
2019-05-09T00:12:34.414Z,13.20
2019-05-09T00:15:19.655Z,13.20
2019-05-09T00:18:04.584Z,13.20
2019-05-09T00:20:55.187Z,13.10
2019-05-09T00:23:39.830Z,13.20
2019-05-09T00:26:24.441Z,13.30
2019-05-09T00:29:14.795Z,13.30
2019-05-09T00:32:06.160Z,13.30
2019-05-09T00:34:57.447Z,13.40
2019-05-09T00:38:04.125Z,13.30
2019-05-09T00:40:56.043Z,13.30
2019-05-09T00:43:23.797Z,13.20
2019-05-09T00:49:34.272Z,13.20
2019-05-09T00:52:25.771Z,13.20
2019-05-09T00:55:13.130Z,13.20
2019-05-09T00:57:57.815Z,13.20
2019-05-09T01:00:43.916Z,13.10
2019-05-09T01:03:29.239Z,13.10
2019-05-09T01:06:14.288Z,13.10
2019-05-09T01:08:59.467Z,13.10
2019-05-09T01:11:44.746Z,13.10
2019-05-09T01:14:29.781Z,13.00
2019-05-09T01:17:14.776Z,13.00
2019-05-09T01:19:59.439Z,13.10
2019-05-09T01:22:44.654Z,13.20
2019-05-09T01:25:29.935Z,13.20
2019-05-09T01:28:15.567Z,13.20
2019-05-09T01:31:00.189Z,13.20
2019-05-09T01:34:13.207Z,13.20
2019-05-09T01:37:09.785Z,13.20
2019-05-09T01:39:54.539Z,13.20
2019-05-09T01:42:40.011Z,13.20
2019-05-09T01:45:24.686Z,13.20
2019-05-09T01:48:09.754Z,13.20
2019-05-09T01:50:54.587Z,13.10
2019-05-09T01:53:45.230Z,13.10
2019-05-09T01:56:29.858Z,13.10
2019-05-09T01:59:14.608Z,13.10
2019-05-09T02:02:00.068Z,13.10
2019-05-09T02:04:45.254Z,13.00
2019-05-09T02:07:30.137Z,13.10
2019-05-09T02:10:15.207Z,13.10
2019-05-09T02:13:00.239Z,13.10
2019-05-09T02:16:04.961Z,13.00
2019-05-09T02:22:00.761Z,12.90
2019-05-09T02:24:45.849Z,13.00
2019-05-09T02:27:33.100Z,13.10
2019-05-09T02:30:17.772Z,13.00
2019-05-09T02:33:05.111Z,13.00
2019-05-09T02:35:56.784Z,13.00
2019-05-09T02:38:38.981Z,12.90
2019-05-09T02:41:23.759Z,13.00
2019-05-09T02:44:09.445Z,13.00
2019-05-09T02:47:00.366Z,13.00
2019-05-09T02:49:48.367Z,13.00
2019-05-09T02:52:32.687Z,13.00
2019-05-09T02:55:18.629Z,13.00
2019-05-09T02:58:08.254Z,12.90
2019-05-09T03:00:59.928Z,12.90
2019-05-09T03:03:58.814Z,12.90
2019-05-09T03:06:43.181Z,13.00
2019-05-09T03:09:28.663Z,13.00
2019-05-09T03:12:26.039Z,12.80
2019-05-09T03:14:58.820Z,12.80
2019-05-09T03:17:43.974Z,12.80
2019-05-09T03:20:49.389Z,12.70
2019-05-09T03:23:34.672Z,12.70
2019-05-09T03:26:24.232Z,12.60
2019-05-09T03:32:14.241Z,12.60
2019-05-09T03:34:59.715Z,12.70
2019-05-09T03:37:48.130Z,12.60
2019-05-09T03:40:33.167Z,12.50
2019-05-09T03:43:18.511Z,12.50
2019-05-09T03:49:09.469Z,12.50
2019-05-09T03:51:54.269Z,12.50
2019-05-09T03:54:39.311Z,12.50
2019-05-09T03:57:29.521Z,12.50
2019-05-09T04:00:14.135Z,12.60
2019-05-09T04:02:59.253Z,12.60
2019-05-09T04:05:56.583Z,12.60
2019-05-09T04:08:31.564Z,12.50
2019-05-09T04:11:18.340Z,12.50
2019-05-09T04:14:08.305Z,12.50
2019-05-09T04:16:52.808Z,12.50
2019-05-09T04:19:38.038Z,12.60
2019-05-09T04:22:24.767Z,12.70
2019-05-09T04:25:11.723Z,12.70
2019-05-09T04:27:58.342Z,12.80
2019-05-09T04:30:43.103Z,12.80
2019-05-09T04:33:28.067Z,12.90
2019-05-09T04:36:13.141Z,12.80
2019-05-09T04:38:58.484Z,12.90
2019-05-09T04:41:43.240Z,12.90
2019-05-09T04:44:32.960Z,12.90
2019-05-09T04:47:17.945Z,12.90
2019-05-09T04:50:03.117Z,12.90
2019-05-09T04:52:47.630Z,12.90
2019-05-09T04:55:34.327Z,13.00
2019-05-09T04:58:19.680Z,12.80
2019-05-09T05:01:24.109Z,12.80
2019-05-09T05:04:08.959Z,12.90
2019-05-09T05:06:53.472Z,12.80
2019-05-09T05:09:38.946Z,12.90
2019-05-09T05:12:24.101Z,12.90
2019-05-09T05:15:09.178Z,12.90
2019-05-09T05:17:54.187Z,12.90
2019-05-09T05:23:29.141Z,12.90
2019-05-09T05:26:13.480Z,12.90
2019-05-09T05:28:58.170Z,12.90
2019-05-09T05:31:42.988Z,12.90
2019-05-09T05:34:48.038Z,13.00
2019-05-09T05:37:32.577Z,13.10
2019-05-09T05:45:53.480Z,13.20
2019-05-09T05:48:39.262Z,13.20
2019-05-09T05:51:24.819Z,13.10
2019-05-09T05:54:09.318Z,13.10
2019-05-09T05:56:54.991Z,13.20
2019-05-09T05:59:41.066Z,13.30
2019-05-09T06:02:27.965Z,13.30
2019-05-09T06:05:12.787Z,13.30
2019-05-09T06:07:57.897Z,13.40
2019-05-09T06:10:42.912Z,13.40
2019-05-09T06:13:28.087Z,13.40
2019-05-09T06:16:13.137Z,13.30
2019-05-09T06:18:58.745Z,13.50
2019-05-09T06:21:44.195Z,13.60
2019-05-09T06:24:29.399Z,13.60
2019-05-09T06:27:14.283Z,13.60
2019-05-09T06:29:58.682Z,13.70
2019-05-09T06:32:43.447Z,13.60
2019-05-09T06:35:28.721Z,13.70
2019-05-09T06:38:13.078Z,13.70
2019-05-09T06:40:58.294Z,13.70
2019-05-09T06:43:45.160Z,13.70
2019-05-09T06:46:39.418Z,13.80
2019-05-09T06:49:31.787Z,13.70
2019-05-09T06:52:17.461Z,13.60
2019-05-09T06:55:04.092Z,13.50
2019-05-09T06:57:49.075Z,13.60
2019-05-09T07:03:40.516Z,13.60
2019-05-09T07:06:45.211Z,13.60
2019-05-09T07:09:34.066Z,13.80
2019-05-09T07:12:19.048Z,13.80
2019-05-09T07:15:04.027Z,13.80
2019-05-09T07:17:49.394Z,13.90
2019-05-09T07:23:38.303Z,14.10
2019-05-09T07:26:28.652Z,14.30
2019-05-09T07:29:13.836Z,14.10
2019-05-09T07:32:04.506Z,14.30
2019-05-09T07:34:54.097Z,14.50
2019-05-09T07:37:38.938Z,14.40
2019-05-09T07:40:26.910Z,14.10
2019-05-09T07:43:10.263Z,13.90
2019-05-09T07:46:15.067Z,13.70
2019-05-09T07:49:01.328Z,13.80
2019-05-09T07:51:47.753Z,13.70
2019-05-09T07:54:32.477Z,13.90
2019-05-09T07:57:18.315Z,13.80
2019-05-09T08:00:04.484Z,13.80
2019-05-09T08:02:49.635Z,13.80
2019-05-09T08:05:34.625Z,13.90
2019-05-09T08:08:19.692Z,14.10
2019-05-09T08:11:04.753Z,14.20
2019-05-09T08:13:50.195Z,14.10
2019-05-09T08:16:34.996Z,13.80
2019-05-09T08:19:20.033Z,14.00
2019-05-09T08:22:07.762Z,14.10
2019-05-09T08:24:52.191Z,13.90
2019-05-09T08:27:38.029Z,14.10
2019-05-09T08:30:22.821Z,14.20
2019-05-09T08:36:14.050Z,14.60
2019-05-09T08:38:59.227Z,14.90
2019-05-09T08:41:43.809Z,15.00
2019-05-09T08:44:31.239Z,14.80
2019-05-09T08:47:18.334Z,14.80
2019-05-09T08:53:09.380Z,14.60
2019-05-09T08:55:54.359Z,14.70
2019-05-09T08:58:39.517Z,14.60
2019-05-09T09:01:35.390Z,14.30
2019-05-09T09:04:10.960Z,14.50
2019-05-09T09:06:57.669Z,14.70
2019-05-09T09:09:42.682Z,14.70
2019-05-09T09:12:34.168Z,14.80
2019-05-09T09:15:15.239Z,15.00
2019-05-09T09:18:00.512Z,15.20
2019-05-09T09:20:45.270Z,15.20
2019-05-09T09:23:43.231Z,15.30
2019-05-09T09:26:18.374Z,15.30
2019-05-09T09:29:04.626Z,15.30
2019-05-09T09:31:49.340Z,15.10
2019-05-09T09:34:34.744Z,15.00
2019-05-09T09:37:19.812Z,15.00
2019-05-09T09:40:05.040Z,15.00
2019-05-09T09:42:39.400Z,15.40
2019-05-09T09:46:06.227Z,15.80
2019-05-09T09:48:43.245Z,15.90
2019-05-09T09:51:28.295Z,16.10
2019-05-09T09:54:13.308Z,16.10
2019-05-09T09:56:58.675Z,16.10
2019-05-09T09:59:48.362Z,16.10
2019-05-09T10:02:37.332Z,16.20
2019-05-09T10:05:21.433Z,16.00
2019-05-09T10:07:53.705Z,15.80
2019-05-09T10:10:38.732Z,16.10
2019-05-09T10:13:23.905Z,16.00
2019-05-09T10:16:28.419Z,15.60
2019-05-09T10:19:13.943Z,15.50
2019-05-09T10:22:00.200Z,15.50
2019-05-09T10:24:45.008Z,15.50
2019-05-09T10:27:30.135Z,15.60
2019-05-09T10:30:17.890Z,15.60
2019-05-09T10:33:02.784Z,15.70
2019-05-09T10:35:48.006Z,15.60
2019-05-09T10:38:33.104Z,15.50
2019-05-09T10:41:17.983Z,15.50
2019-05-09T10:44:10.235Z,15.40
2019-05-09T10:47:02.144Z,15.40
2019-05-09T10:49:48.840Z,15.50
2019-05-09T10:52:33.374Z,15.60
2019-05-09T10:55:18.598Z,16.10
2019-05-09T11:00:49.246Z,17.10
2019-05-09T11:03:34.210Z,17.60
2019-05-09T11:06:19.356Z,17.60
2019-05-09T11:09:04.612Z,17.40
2019-05-09T11:11:49.505Z,17.20
2019-05-09T11:14:37.447Z,17.00
2019-05-09T11:17:22.042Z,16.60
2019-05-09T11:20:08.670Z,16.20
2019-05-09T11:22:54.115Z,16.10
2019-05-09T11:25:39.084Z,16.10
2019-05-09T11:28:24.280Z,16.20
2019-05-09T11:31:09.548Z,16.00
2019-05-09T11:33:54.767Z,15.50
2019-05-09T11:36:39.832Z,15.50
2019-05-09T11:39:35.517Z,15.50
2019-05-09T11:42:11.876Z,15.30
2019-05-09T11:44:57.997Z,15.30
2019-05-09T11:47:46.376Z,15.60
2019-05-09T11:50:30.286Z,16.20
2019-05-09T11:53:17.647Z,16.30
2019-05-09T11:56:02.428Z,16.10
2019-05-09T11:58:48.457Z,16.40
2019-05-09T12:01:33.686Z,16.70
2019-05-09T12:04:18.939Z,16.80
2019-05-09T12:10:07.966Z,17.10
2019-05-09T12:12:52.683Z,17.10
2019-05-09T12:15:39.026Z,17.20
2019-05-09T12:18:23.812Z,17.20
2019-05-09T12:21:08.999Z,17.00
2019-05-09T12:23:54.441Z,17.30
2019-05-09T12:26:39.439Z,17.00
2019-05-09T12:29:24.432Z,17.00
2019-05-09T12:32:09.601Z,17.10
2019-05-09T12:34:54.773Z,17.30
2019-05-09T12:37:40.132Z,17.20
2019-05-09T12:40:25.123Z,17.60
2019-05-09T12:43:10.631Z,17.80
2019-05-09T12:45:57.670Z,17.20
2019-05-09T12:48:42.434Z,17.30
2019-05-09T12:51:28.118Z,17.50
2019-05-09T12:54:12.887Z,17.20
2019-05-09T12:56:59.208Z,17.40
2019-05-09T12:59:48.470Z,17.30
2019-05-09T13:02:31.108Z,17.30
2019-05-09T13:05:18.098Z,17.30
2019-05-09T13:08:03.291Z,17.40
2019-05-09T13:10:48.865Z,17.30
2019-05-09T13:13:33.368Z,17.20
2019-05-09T13:16:39.114Z,17.20
2019-05-09T13:19:18.648Z,17.00
2019-05-09T13:22:03.556Z,17.10
2019-05-09T13:24:48.654Z,17.40
2019-05-09T13:27:33.710Z,17.60
2019-05-09T13:30:19.383Z,17.80
2019-05-09T13:33:08.177Z,17.70
2019-05-09T13:35:52.124Z,17.70
2019-05-09T13:38:37.843Z,17.30
2019-05-09T13:41:24.303Z,17.50
2019-05-09T13:44:13.478Z,17.70
2019-05-09T13:46:58.439Z,17.60
2019-05-09T13:49:43.588Z,17.30
2019-05-09T13:52:28.542Z,17.00
2019-05-09T13:55:13.292Z,16.90
2019-05-09T13:57:59.461Z,17.20
2019-05-09T14:00:58.360Z,17.30
2019-05-09T14:03:30.603Z,17.20
2019-05-09T14:06:15.680Z,17.60
2019-05-09T14:09:00.761Z,17.70
2019-05-09T14:11:47.924Z,18.10
2019-05-09T14:14:31.944Z,18.10
2019-05-09T14:17:19.115Z,18.10
2019-05-09T14:20:04.003Z,18.00
2019-05-09T14:22:49.274Z,17.80
2019-05-09T14:25:34.131Z,18.00
2019-05-09T14:28:19.248Z,18.40
2019-05-09T14:31:04.476Z,18.60
2019-05-09T14:33:49.421Z,18.70
2019-05-09T14:36:34.598Z,18.60
2019-05-09T14:39:19.787Z,18.00
2019-05-09T14:42:04.677Z,18.10
2019-05-09T14:44:49.707Z,18.20
2019-05-09T14:47:39.514Z,18.40
2019-05-09T14:50:21.886Z,17.90
2019-05-09T14:53:08.611Z,17.60
2019-05-09T14:55:53.645Z,17.60
2019-05-09T14:58:40.749Z,17.40
2019-05-09T15:01:28.436Z,17.40
2019-05-09T15:04:12.475Z,17.70
2019-05-09T15:06:57.995Z,17.70
2019-05-09T15:09:42.909Z,17.40
2019-05-09T15:12:28.909Z,17.40
2019-05-09T15:15:14.094Z,17.40
2019-05-09T15:17:59.043Z,17.50
2019-05-09T15:20:30.902Z,17.40
2019-05-09T15:23:22.363Z,17.40
2019-05-09T15:26:07.734Z,17.40
2019-05-09T15:28:39.798Z,17.40
2019-05-09T15:31:24.732Z,17.10
2019-05-09T15:34:10.551Z,16.90
2019-05-09T15:36:54.966Z,17.00
2019-05-09T15:39:40.173Z,17.20
2019-05-09T15:42:24.919Z,17.30
2019-05-09T15:45:09.997Z,17.10
2019-05-09T15:47:54.932Z,17.10
2019-05-09T15:50:40.191Z,17.10
2019-05-09T15:53:27.247Z,17.20
2019-05-09T15:56:12.518Z,17.00
2019-05-09T15:58:58.096Z,17.20
2019-05-09T16:01:42.808Z,17.10
2019-05-09T16:04:28.122Z,17.20
2019-05-09T16:07:13.372Z,17.20
2019-05-09T16:09:58.177Z,17.30
2019-05-09T16:12:43.397Z,17.30
2019-05-09T16:15:28.808Z,17.20
2019-05-09T16:18:14.083Z,17.10
2019-05-09T16:20:59.064Z,17.20
2019-05-09T16:23:44.214Z,17.10
2019-05-09T16:26:29.292Z,17.20
2019-05-09T16:29:14.514Z,17.10
2019-05-09T16:31:59.863Z,17.10
2019-05-09T16:34:44.665Z,17.20
2019-05-09T16:37:16.521Z,17.10
2019-05-09T16:40:01.558Z,17.10
2019-05-09T16:42:47.522Z,17.10
2019-05-09T16:45:32.744Z,17.10
2019-05-09T16:48:18.455Z,17.20
2019-05-09T16:51:04.456Z,17.10
2019-05-09T16:53:49.879Z,17.10
2019-05-09T16:56:37.597Z,17.20
2019-05-09T16:59:21.932Z,17.20
2019-05-09T17:02:20.688Z,17.20
2019-05-09T17:04:53.979Z,17.20
2019-05-09T17:07:38.871Z,17.20
2019-05-09T17:10:24.078Z,17.20
2019-05-09T17:13:08.901Z,17.10
2019-05-09T17:15:54.027Z,17.10
2019-05-09T17:18:39.039Z,17.10
2019-05-09T17:24:29.617Z,17.00
2019-05-09T17:27:14.473Z,16.90
2019-05-09T17:29:58.861Z,16.70
2019-05-09T17:32:44.059Z,16.70
2019-05-09T17:35:28.971Z,16.60
2019-05-09T17:38:13.385Z,16.60
2019-05-09T17:40:58.500Z,16.40
2019-05-09T17:43:43.743Z,16.40
2019-05-09T17:46:28.752Z,16.40
2019-05-09T17:49:13.151Z,16.40
2019-05-09T17:51:58.586Z,16.40
2019-05-09T17:54:43.289Z,16.30
2019-05-09T17:57:28.296Z,16.40
2019-05-09T18:00:13.593Z,16.40
2019-05-09T18:02:58.171Z,16.30
2019-05-09T18:05:43.390Z,16.40
2019-05-09T18:08:28.522Z,16.40
2019-05-09T18:11:13.781Z,16.40
2019-05-09T18:13:58.370Z,16.30
2019-05-09T18:16:43.739Z,16.30
2019-05-09T18:19:29.378Z,16.30
2019-05-09T18:22:14.621Z,16.20
2019-05-09T18:27:53.728Z,15.90
2019-05-09T18:30:39.048Z,15.80
2019-05-09T18:33:30.459Z,15.80
2019-05-09T18:36:15.790Z,15.70
2019-05-09T18:39:00.940Z,15.70
2019-05-09T18:41:48.228Z,15.70
2019-05-09T18:44:33.255Z,15.70
2019-05-09T18:47:18.530Z,15.60
2019-05-09T18:50:03.058Z,15.60
2019-05-09T18:52:48.088Z,15.50
2019-05-09T18:55:33.220Z,15.60
2019-05-09T18:58:18.384Z,15.60
2019-05-09T19:01:03.425Z,15.50
2019-05-09T19:03:48.728Z,15.50
2019-05-09T19:06:33.611Z,15.50
2019-05-09T19:09:18.839Z,15.40
2019-05-09T19:12:03.837Z,15.40
2019-05-09T19:14:48.848Z,15.40
2019-05-09T19:17:53.827Z,15.30
2019-05-09T19:21:01.851Z,15.30
2019-05-09T19:23:46.247Z,15.40
2019-05-09T19:26:37.513Z,15.30
2019-05-09T19:32:25.981Z,15.10
2019-05-09T19:35:12.247Z,15.10
2019-05-09T19:37:57.036Z,15.00
2019-05-09T19:40:42.112Z,15.00
2019-05-09T19:43:27.193Z,15.10
2019-05-09T19:46:12.501Z,15.10
2019-05-09T19:48:44.448Z,15.10
2019-05-09T19:51:36.368Z,15.00
2019-05-09T19:54:21.230Z,15.10
2019-05-09T19:57:07.428Z,15.10
2019-05-09T19:59:52.584Z,15.00
2019-05-09T20:02:37.488Z,15.00
2019-05-09T20:05:22.621Z,15.00
2019-05-09T20:08:07.728Z,15.00
2019-05-09T20:11:18.097Z,15.00
2019-05-09T20:14:22.737Z,15.00
2019-05-09T20:20:20.162Z,14.90
2019-05-09T20:22:53.225Z,15.00
2019-05-09T20:25:44.788Z,15.00
2019-05-09T20:28:29.633Z,14.90
2019-05-09T20:31:14.746Z,15.00
2019-05-09T20:33:59.693Z,15.00
2019-05-09T20:36:44.816Z,14.80
2019-05-09T20:39:17.018Z,14.90
2019-05-09T20:42:08.524Z,14.80
2019-05-09T20:44:52.955Z,14.90
2019-05-09T20:47:38.051Z,14.80
2019-05-09T20:50:23.161Z,14.70
2019-05-09T20:53:09.837Z,14.80
2019-05-09T20:55:55.412Z,14.70
2019-05-09T20:58:40.399Z,14.70
2019-05-09T21:01:25.870Z,14.60
2019-05-09T21:04:10.705Z,14.60
2019-05-09T21:06:55.930Z,14.50
2019-05-09T21:09:41.156Z,14.40
2019-05-09T21:12:26.279Z,14.40
2019-05-09T21:15:11.672Z,14.40
2019-05-09T21:17:56.560Z,14.40
2019-05-09T21:20:41.659Z,14.30
2019-05-09T21:23:27.137Z,14.30
2019-05-09T21:26:12.347Z,14.40
2019-05-09T21:28:57.132Z,14.40
2019-05-09T21:31:41.380Z,14.30
2019-05-09T21:34:26.396Z,14.40
2019-05-09T21:37:13.884Z,14.40
2019-05-09T21:39:57.349Z,14.40
2019-05-09T21:42:42.369Z,14.40
2019-05-09T21:45:27.516Z,14.40
2019-05-09T21:48:12.520Z,14.40
2019-05-09T21:50:57.616Z,14.40
2019-05-09T21:53:42.664Z,14.40
2019-05-09T21:56:27.896Z,14.40
2019-05-09T21:59:12.866Z,14.30
2019-05-09T22:01:57.978Z,14.30
2019-05-09T22:04:42.932Z,14.30
2019-05-09T22:07:27.351Z,14.30
2019-05-09T22:10:12.777Z,14.20
2019-05-09T22:12:57.573Z,14.20
2019-05-09T22:15:42.680Z,14.10
2019-05-09T22:18:28.043Z,14.00
2019-05-09T22:21:32.618Z,14.00
2019-05-09T22:24:17.086Z,14.00
2019-05-09T22:27:02.279Z,14.00
2019-05-09T22:29:47.370Z,14.00
2019-05-09T22:32:32.176Z,14.00
2019-05-09T22:35:16.981Z,13.90
2019-05-09T22:38:02.029Z,13.90
2019-05-09T22:40:47.270Z,13.90
2019-05-09T22:43:32.064Z,13.90
2019-05-09T22:46:16.580Z,13.90
2019-05-09T22:49:01.630Z,13.90
2019-05-09T22:51:46.451Z,13.80
2019-05-09T22:54:30.681Z,13.80
2019-05-09T22:57:16.363Z,13.80
2019-05-09T23:00:01.018Z,13.70
2019-05-09T23:02:46.316Z,13.70
2019-05-09T23:05:30.915Z,13.60
2019-05-09T23:08:15.813Z,13.60
2019-05-09T23:11:00.960Z,13.60
2019-05-09T23:13:52.051Z,13.50
2019-05-09T23:16:38.703Z,13.50
2019-05-09T23:19:23.825Z,13.50
2019-05-09T23:22:09.557Z,13.50
2019-05-09T23:24:53.827Z,13.40
2019-05-09T23:27:38.986Z,13.40
2019-05-09T23:30:24.158Z,13.40
2019-05-09T23:33:09.419Z,13.40
2019-05-09T23:35:54.635Z,13.30
2019-05-09T23:38:59.314Z,13.30
2019-05-09T23:41:44.398Z,13.30
2019-05-09T23:44:29.293Z,13.20
2019-05-09T23:47:14.507Z,13.20
2019-05-09T23:49:59.403Z,13.10
2019-05-09T23:52:44.347Z,13.20
2019-05-09T23:55:47.803Z,13.20
2019-05-09T23:58:37.784Z,13.20
